KE8TTQ-1 Weather Reports


time (UTC)temp
F
wind
direction
speed
knots
gust
knots
rain 1hr
in
rain 24hr
in
rain mn
in
humidity
%
barometer
mb
20260507103432 44 0.0 0.0 0.00 0.00 0.00 10 1015.9
20260507101432 44 0.0 0.0 0.00 0.00 0.00 10 1015.9
20260507093433 45 0.0 0.0 0.00 0.00 0.00 10 1015.9
20260507085433 45 0.0 0.0 0.00 0.00 0.00 10 1015.5
20260507081432 46 0.0 0.0 0.00 0.00 0.00 10 1015.5
20260507075432 46 0.0 0.0 0.00 0.00 0.00 10 1015.5
20260507073432 46 0.0 0.0 0.00 0.00 0.00 10 1015.2
20260507071434 47 0.0 0.0 0.00 0.00 0.00 10 1015.5
20260507065432 46 0.0 0.0 0.00 0.00 0.00 10 1015.5
20260507063432 46 0.0 0.0 0.00 0.00 0.00 10 1015.5
20260507061433 47 0.0 0.0 0.00 0.00 0.00 10 1015.5
20260507055432 47 0.0 0.0 0.00 0.00 0.00 10 1015.5
20260507053433 46 0.0 0.0 0.00 0.00 0.00 10 1015.9
20260507043432 48 0.0 0.0 0.00 0.00 0.00 10 1015.9
20260507041433 49 0.0 0.0 0.00 0.00 0.00 10 1015.9
20260507035432 49 0.0 0.0 0.00 0.00 0.00 10 1015.9
20260507033432 49 0.0 0.0 0.00 0.00 0.00 10 1015.5
20260507031431 51 0.0 0.0 0.00 0.00 0.00 10 1015.5
20260507015431 55 0.0 0.0 0.00 0.00 0.00 93 1015.5
20260507013431 56 0.0 0.0 0.00 0.00 0.00 90 1015.2
20260507011431 56 0.0 0.0 0.00 0.00 0.00 80 1014.9
20260507005431 57 0.0 0.0 0.00 0.00 0.00 67 1014.9
20260507003431 58 0.0 0.0 0.00 0.00 0.00 64 1014.9
20260507001433 58 0.0 0.0 0.00 0.00 0.00 61 1014.5
20260506235432 58 0.0 0.0 0.00 0.00 0.00 60 1014.2
20260506231432 59 0.0 0.0 0.00 0.00 0.00 58 1013.5
20260506225431 60 0.0 0.0 0.00 0.00 0.00 58 1013.5
20260506223431 60 0.0 0.0 0.00 0.00 0.00 58 1013.5
20260506221431 61 0.0 0.0 0.00 0.00 0.00 53 1013.8
20260506215432 62 0.0 0.0 0.00 0.00 0.00 52 1013.8
20260506213431 64 0.0 0.0 0.00 0.00 0.00 52 1013.8
20260506211431 64 0.0 0.0 0.00 0.00 0.00 51 1013.2
20260506205431 63 0.0 0.0 0.00 0.00 0.00 49 1013.5
20260506203431 65 0.0 0.0 0.00 0.00 0.00 50 1013.5
20260506193431 63 0.0 0.0 0.00 0.00 0.00 56 1013.5
20260506185431 63 0.0 0.0 0.00 0.00 0.00 57 1013.2
20260506183431 64 0.0 0.0 0.00 0.00 0.00 60 1013.2
20260506181430 66 0.0 0.0 0.00 0.00 0.00 64 1013.2
20260506175430 64 0.0 0.0 0.00 0.00 0.00 61 1013.5
20260506173431 67 0.0 0.0 0.00 0.00 0.00 52 1013.5
20260506165431 66 0.0 0.0 0.00 0.00 0.00 57 1013.8
20260506163430 68 0.0 0.0 0.00 0.00 0.00 56 1013.5
20260506161431 67 0.0 0.0 0.00 0.00 0.00 62 1013.8
20260506155430 68 0.0 0.0 0.00 0.00 0.00 64 1013.8
20260506151430 58 0.0 0.0 0.00 0.00 0.00 10 1013.5
20260506145430 59 0.0 0.0 0.00 0.00 0.00 10 1013.2
20260506133430 54 0.0 0.0 0.00 0.00 0.00 10 1012.5
20260506131429 54 0.0 0.0 0.00 0.00 0.00 10 1012.1
20260506125430 51 0.0 0.0 0.00 0.00 0.00 10 1012.1
20260506123429 50 0.0 0.0 0.00 0.00 0.00 10 1011.8